Hauptseite
METAR-TAF:

METAR-TAF

Flughäfen :

Peking, China

Flughafen Peking

Breite: 39-56N, Länge: 116-17E, Höhe: 55 m

Beobachtung

Neuester Wetterbericht von vor 29 Minuten, um 17:30 UTC
Wind 4 kt aus Nordost, variierte zwischen Nord und Ost
Temperatur 12°C
Luftfeuchtigkeit 88%
Luftdruck 1018 hPa
Sichtweite 10 km oder mehr
keine Wolken unter 1500 m und keine Kumulonimbus oder Gewitterwolken

METAR: ZBAA 261730Z 04002MPS 350V100 CAVOK 12/10 Q1018 NOSIG

Zeit: 01:59 (17:59 UTC)

Prognose

Neuester Wetterbericht von vor 2 Stunden und 39 Minuten, um 15:20 UTC
Gültige Prognose vom 26 um 18 UTC bis 27 um 18 UTC
Wind 8 kt aus Nordwest
Sichtweite 10 km oder mehr
keine Wolken unter 1500 m und keine Kumulonimbus oder Gewitterwolken

TAF: ZBAA 261520Z 2618/2718 32004MPS CAVOK TX24/2707Z TN12/2621Z

Wetterbeobachtungen und Prognosen von mehr als 4000 Flughäfen (METAR und TAF Bericht).

Die verfügbaren Stationen werden durch gelbe und rote Markierungen auf der Karte dargestellt.

Führen Sie die Maus auf sie, um den Namen der Station zu sehen.

Darauf klicken, um die Beobachtung von Wetterbeobachtungen und Prognosen zu sehen.

Um die Karte zu ändern : klicken Sie auf den grünen Tasten mit einem schwarzen Kreuz Zum Vergrößern, auf den grünen Button mit einem Gedankenstrich zu verkleinern, oder auf die grünen Pfeile für benachbarte Karten.


METAR-TAF: